Galesburg, IL

12:50 AM CST on February 20, 2017 (GMT -0600)
Galesburg Municipal

Weather History for KGBG - February, 2015

Change the Weather History Date:

Thursday, February 12, 2015

  Actual Average Record
Temperature  
Mean Temperature 11 °F -  
Max Temperature 16 °F 34 °F 65 °F (1990)
Min Temperature 6 °F 16 °F -11 °F (1988)
Degree Days  
Heating Degree Days 54    
Moisture  
Dew Point 4 °F    
Average Humidity 72    
Maximum Humidity 83    
Minimum Humidity 63    
Precipitation  
Precipitation 0.00 in - - ()
Sea Level Pressure  
Sea Level Pressure 30.45 in    
Wind  
Wind Speed 15 mph (NW)    
Max Wind Speed 23 mph    
Max Gust Speed 32 mph    
Visibility 10 miles    
Events Snow    
Averages and records for this station are not official NWS values.
T = Trace of Precipitation, MM = Missing Value Source: NWS Daily Summary

Daily Weather History Graph

Daily Weather History Graph

Search for Another Location

Airport or City:

Trip Planner

Search our weather history database for the weather conditions in past years. The results will help you decide how hot, cold, wet, or windy it might be!

Date:

Astronomy

Feb. 12, 2015 Rise Set
Actual Time 7:00 AM CST 5:32 PM CST
Civil Twilight 6:31 AM CST 6:00 PM CST
Nautical Twilight 5:59 AM CST 6:33 PM CST
Astronomical Twilight 5:27 AM CST 7:04 PM CST
Moon 1:03 AM CST (2/12) 11:27 AM CST (2/12)
Length of Visible Light 11h 28m
Length of Day
10h 32m
Last Quarter, 44% of the Moon is Illuminated
Feb 12
Last Quarter
Feb 18
New
Feb 25
First Quarter
Mar 5
Full
Mar 13
Last Quarter

Hourly Weather History & Observations

Time (CST) Temp. Windchill Dew Point Humidity Pressure Visibility Wind Dir Wind Speed Gust Speed Precip Events Conditions
12:15 AM 16.5 °F -1.0 °F 10.9 °F 79% 30.26 in 2.5 mi NNW 21.9 mph 29.9 mph N/A Snow Light Snow
12:35 AM 15.1 °F -2.5 °F 9.1 °F 77% 30.27 in 10.0 mi NW 20.7 mph 28.8 mph N/A   Overcast
12:55 AM 14.9 °F 0.3 °F 10.0 °F 81% 30.27 in 7.0 mi NW 13.8 mph 23.0 mph N/A   Overcast
1:15 AM 14.9 °F -2.3 °F 8.8 °F 77% 30.26 in 10.0 mi NW 19.6 mph 28.8 mph N/A   Overcast
1:35 AM 14.0 °F -4.7 °F 7.5 °F 75% 30.27 in 10.0 mi NW 23.0 mph 28.8 mph N/A   Overcast
1:55 AM 11.8 °F -7.2 °F 5.0 °F 74% 30.29 in 10.0 mi NNW 21.9 mph 28.8 mph N/A   Mostly Cloudy
2:15 AM 10.9 °F -7.9 °F 4.6 °F 76% 30.30 in 10.0 mi NW 20.7 mph 32.2 mph N/A   Mostly Cloudy
2:35 AM 10.2 °F -9.3 °F 4.6 °F 78% 30.31 in 7.0 mi NW 21.9 mph 31.1 mph N/A   Overcast
2:55 AM 9.5 °F -8.3 °F 4.1 °F 79% 30.32 in 10.0 mi NW 17.3 mph 28.8 mph N/A   Overcast
3:15 AM 9.3 °F -10.0 °F 3.9 °F 79% 30.34 in 10.0 mi NW 20.7 mph 26.5 mph N/A   Mostly Cloudy
3:35 AM 9.1 °F -11.2 °F 3.2 °F 77% 30.35 in 10.0 mi NW 23.0 mph 31.1 mph N/A   Mostly Cloudy
3:55 AM 8.6 °F -11.0 °F 3.2 °F 79% 30.36 in 10.0 mi NW 20.7 mph 31.1 mph N/A   Scattered Clouds
4:15 AM 8.4 °F -10.3 °F 2.5 °F 77% 30.38 in 10.0 mi NW 18.4 mph 27.6 mph N/A   Clear
4:35 AM 8.1 °F -10.7 °F 2.1 °F 77% 30.39 in 10.0 mi NW 18.4 mph 25.3 mph N/A   Clear
4:55 AM 7.7 °F -11.7 °F 1.9 °F 77% 30.40 in 10.0 mi NW 19.6 mph 24.2 mph N/A   Clear
5:15 AM 7.7 °F -11.7 °F 1.8 °F 77% 30.40 in 10.0 mi NW 19.6 mph 25.3 mph N/A   Clear
5:35 AM 7.3 °F -12.6 °F 1.4 °F 77% 30.41 in 10.0 mi NW 20.7 mph 27.6 mph N/A   Clear
5:55 AM 7.3 °F -11.1 °F 1.4 °F 77% 30.43 in 10.0 mi NW 17.3 mph 23.0 mph N/A   Clear
6:15 AM 6.8 °F -12.4 °F 1.2 °F 78% 30.45 in 10.0 mi NW 18.4 mph 23.0 mph N/A   Clear
6:35 AM 6.8 °F -11.3 °F 0.7 °F 76% 30.45 in 10.0 mi NNW 16.1 mph 24.2 mph N/A   Clear
6:55 AM 6.4 °F -11.7 °F 0.5 °F 77% 30.46 in 10.0 mi NNW 16.1 mph 23.0 mph N/A   Clear
7:15 AM 6.4 °F -12.8 °F 0.7 °F 77% 30.47 in 10.0 mi NNW 18.4 mph 24.2 mph N/A   Clear
7:35 AM 6.8 °F -11.3 °F 0.9 °F 77% 30.48 in 10.0 mi NNW 16.1 mph - N/A   Clear
7:55 AM 7.3 °F -7.9 °F 1.4 °F 77% 30.49 in 10.0 mi NNW 11.5 mph - N/A   Clear
8:15 AM 8.2 °F -7.5 °F 1.9 °F 76% 30.49 in 10.0 mi NNW 12.7 mph 17.3 mph N/A   Clear
8:35 AM 8.8 °F -6.8 °F 2.1 °F 74% 30.50 in 10.0 mi NNW 12.7 mph - N/A   Clear
8:55 AM 10.0 °F -4.5 °F 2.7 °F 72% 30.52 in 10.0 mi NW 11.5 mph - N/A   Clear
9:15 AM 10.4 °F -3.3 °F 2.8 °F 72% 30.53 in 10.0 mi NW 10.4 mph - N/A   Scattered Clouds
9:35 AM 10.8 °F -6.2 °F 2.7 °F 70% 30.53 in 10.0 mi NNW 16.1 mph 19.6 mph N/A   Scattered Clouds
9:55 AM 10.9 °F -3.4 °F 2.5 °F 69% 30.54 in 10.0 mi NW 11.5 mph - N/A   Scattered Clouds
10:15 AM 11.5 °F -2.7 °F 2.8 °F 68% 30.54 in 10.0 mi NNW 11.5 mph - N/A   Scattered Clouds
10:35 AM 12.0 °F -2.0 °F 2.7 °F 66% 30.54 in 10.0 mi NW 11.5 mph - N/A   Clear
10:55 AM 12.4 °F -2.3 °F 3.2 °F 67% 30.54 in 10.0 mi NW 12.7 mph 17.3 mph N/A   Clear
11:15 AM 12.9 °F -0.9 °F 3.6 °F 66% 30.55 in 10.0 mi NNW 11.5 mph 17.3 mph N/A   Scattered Clouds
11:35 AM 13.1 °F 0.9 °F 3.2 °F 65% 30.54 in 10.0 mi NW 9.2 mph - N/A   Scattered Clouds
11:55 AM 13.3 °F 1.1 °F 3.6 °F 65% 30.54 in 10.0 mi NW 9.2 mph - N/A   Scattered Clouds
12:15 PM 13.8 °F 1.8 °F 3.6 °F 64% 30.53 in 10.0 mi NW 9.2 mph 16.1 mph N/A   Scattered Clouds
12:35 PM 13.5 °F 1.3 °F 3.6 °F 65% 30.52 in 10.0 mi NW 9.2 mph - N/A   Mostly Cloudy
12:55 PM 14.2 °F 2.2 °F 4.3 °F 65% 30.54 in 10.0 mi NW 9.2 mph - N/A   Scattered Clouds
1:15 PM 14.4 °F 2.4 °F 4.6 °F 65% 30.53 in 10.0 mi WNW 9.2 mph - N/A   Scattered Clouds
1:35 PM 15.1 °F 1.8 °F 5.2 °F 65% 30.52 in 10.0 mi WNW 11.5 mph - N/A   Scattered Clouds
1:55 PM 14.9 °F 4.0 °F 4.6 °F 64% 30.52 in 10.0 mi NW 8.1 mph - N/A   Clear
2:15 PM 14.9 °F 1.6 °F 5.0 °F 65% 30.52 in 10.0 mi WNW 11.5 mph - N/A   Scattered Clouds
2:35 PM 14.7 °F 2.1 °F 4.8 °F 65% 30.52 in 10.0 mi West 10.4 mph - N/A   Scattered Clouds
2:55 PM 15.6 °F 4.0 °F 5.0 °F 63% 30.52 in 10.0 mi NW 9.2 mph 16.1 mph N/A   Clear
3:15 PM 15.6 °F 4.0 °F 5.2 °F 63% 30.51 in 10.0 mi NW 9.2 mph - N/A   Clear
3:35 PM 15.6 °F 4.0 °F 5.0 °F 63% 30.50 in 10.0 mi WNW 9.2 mph - N/A   Clear
3:55 PM 15.3 °F 2.8 °F 4.8 °F 63% 30.51 in 10.0 mi NW 10.4 mph - N/A   Clear
4:15 PM 14.9 °F 3.1 °F 5.4 °F 66% 30.51 in 10.0 mi NW 9.2 mph - N/A   Clear
4:35 PM 14.7 °F 2.9 °F 5.2 °F 66% 30.50 in 10.0 mi NW 9.2 mph - N/A   Clear
4:55 PM 14.5 °F 2.7 °F 5.4 °F 67% 30.50 in 10.0 mi NW 9.2 mph - N/A   Clear
5:15 PM 14.4 °F 2.4 °F 5.0 °F 66% 30.50 in 10.0 mi NW 9.2 mph - N/A   Clear
5:35 PM 14.0 °F 2.0 °F 5.2 °F 68% 30.49 in 10.0 mi NW 9.2 mph - N/A   Clear
5:55 PM 13.8 °F 3.7 °F 4.5 °F 66% 30.48 in 10.0 mi NW 6.9 mph - N/A   Clear
6:15 PM 13.8 °F 6.2 °F 4.3 °F 66% 30.48 in 10.0 mi NW 4.6 mph - N/A   Clear
6:35 PM 13.6 °F 2.5 °F 5.0 °F 68% 30.48 in 10.0 mi NNW 8.1 mph - N/A   Clear
6:55 PM 13.6 °F 3.5 °F 5.2 °F 69% 30.49 in 10.0 mi NW 6.9 mph - N/A   Clear
7:15 PM 13.5 °F 3.3 °F 5.7 °F 71% 30.48 in 10.0 mi WNW 6.9 mph - N/A   Clear
7:35 PM 13.1 °F 5.4 °F 5.5 °F 72% 30.48 in 10.0 mi NW 4.6 mph - N/A   Clear
7:55 PM 12.9 °F - 5.5 °F 72% 30.47 in 10.0 mi Calm Calm - N/A   Clear
8:15 PM 12.7 °F 6.7 °F 6.1 °F 75% 30.47 in 10.0 mi WNW 3.5 mph - N/A   Clear
8:35 PM 12.7 °F - 6.4 °F 76% 30.47 in 10.0 mi Calm Calm - N/A   Clear
8:55 PM 12.4 °F - 5.5 °F 74% 30.47 in 10.0 mi Calm Calm - N/A   Clear
9:15 PM 11.5 °F - 5.9 °F 78% 30.45 in 10.0 mi Calm Calm - N/A   Clear
9:35 PM 11.7 °F - 5.9 °F 78% 30.44 in 10.0 mi Calm Calm - N/A   Clear
9:55 PM 11.3 °F - 6.1 °F 80% 30.45 in 10.0 mi Calm Calm - N/A   Clear
10:15 PM 11.3 °F - 6.3 °F 80% 30.44 in 10.0 mi Calm Calm - N/A   Clear
10:35 PM 11.8 °F - 5.9 °F 77% 30.43 in 10.0 mi Calm Calm - N/A   Clear
10:55 PM 11.7 °F - 7.5 °F 83% 30.43 in 10.0 mi Calm Calm - N/A   Clear
11:15 PM 11.7 °F - 6.8 °F 81% 30.42 in 10.0 mi Calm Calm - N/A   Clear
11:35 PM 10.9 °F - 6.8 °F 83% 30.42 in 10.0 mi Calm Calm - N/A   Clear
11:55 PM 10.8 °F - 6.4 °F 83% 30.41 in 10.0 mi Calm Calm - N/A   Clear